sensor_id;sensor_type;location;lat;lon;timestamp;pressure;altitude;pressure_sealevel;temperature;humidity
46638;BME280;32365;46.938;7.390;2023-02-11T09:10:32;97078.81;;;1.68;64.16
46638;BME280;32365;46.938;7.390;2023-02-11T09:12:59;97074.09;;;2.24;64.85
46638;BME280;32365;46.938;7.390;2023-02-11T09:15:26;97085.81;;;2.75;60.82
46638;BME280;32365;46.938;7.390;2023-02-11T09:17:52;97066.94;;;4.90;55.51
46638;BME280;32365;46.938;7.390;2023-02-11T09:20:19;97075.66;;;6.85;48.38
46638;BME280;32365;46.938;7.390;2023-02-11T09:22:46;97084.03;;;6.71;49.10
46638;BME280;32365;46.938;7.390;2023-02-11T09:25:13;97072.28;;;7.66;45.48
46638;BME280;32365;46.938;7.390;2023-02-11T09:27:41;97086.31;;;7.55;43.42
46638;BME280;32365;46.938;7.390;2023-02-11T09:30:08;97076.56;;;7.82;45.64
46638;BME280;32365;46.938;7.390;2023-02-11T09:32:35;97070.00;;;8.81;40.43
46638;BME280;32365;46.938;7.390;2023-02-11T09:35:01;97073.41;;;6.82;44.65
46638;BME280;32365;46.938;7.390;2023-02-11T09:37:28;97065.13;;;7.76;44.04
46638;BME280;32365;46.938;7.390;2023-02-11T09:39:55;97054.75;;;10.64;37.00
46638;BME280;32365;46.938;7.390;2023-02-11T09:42:39;97049.31;;;10.00;37.67
46638;BME280;32365;46.938;7.390;2023-02-11T09:45:14;97045.41;;;8.70;39.90
46638;BME280;32365;46.938;7.390;2023-02-11T09:47:47;97041.25;;;8.84;42.63
46638;BME280;32365;46.938;7.390;2023-02-11T09:50:17;97043.44;;;10.28;37.99
46638;BME280;32365;46.938;7.390;2023-02-11T09:52:53;97054.78;;;11.56;35.95
46638;BME280;32365;46.938;7.390;2023-02-11T09:55:24;97061.09;;;12.51;32.78
46638;BME280;32365;46.938;7.390;2023-02-11T09:57:52;97055.09;;;11.11;35.62
46638;BME280;32365;46.938;7.390;2023-02-11T10:00:23;97066.06;;;11.42;36.81
46638;BME280;32365;46.938;7.390;2023-02-11T10:05:55;97052.84;;;8.41;43.00
46638;BME280;32365;46.938;7.390;2023-02-11T10:08:26;97049.94;;;9.51;40.33
46638;BME280;32365;46.938;7.390;2023-02-11T10:11:00;97048.56;;;9.70;42.16
46638;BME280;32365;46.938;7.390;2023-02-11T10:13:47;97054.22;;;10.32;39.69
46638;BME280;32365;46.938;7.390;2023-02-11T10:16:27;97046.19;;;9.68;38.76
46638;BME280;32365;46.938;7.390;2023-02-11T10:19:12;97039.91;;;11.08;38.09
46638;BME280;32365;46.938;7.390;2023-02-11T10:21:49;97036.69;;;13.84;32.19
46638;BME280;32365;46.938;7.390;2023-02-11T10:24:17;97038.47;;;14.55;30.08
46638;BME280;32365;46.938;7.390;2023-02-11T10:26:45;97039.47;;;12.37;34.03
46638;BME280;32365;46.938;7.390;2023-02-11T10:29:19;97046.28;;;12.44;33.28
46638;BME280;32365;46.938;7.390;2023-02-11T10:31:52;97048.97;;;11.54;35.88
46638;BME280;32365;46.938;7.390;2023-02-11T10:34:19;97041.00;;;10.92;36.86
46638;BME280;32365;46.938;7.390;2023-02-11T10:36:45;97040.81;;;11.22;37.05
46638;BME280;32365;46.938;7.390;2023-02-11T10:39:13;97045.88;;;12.94;33.26
46638;BME280;32365;46.938;7.390;2023-02-11T10:41:43;97038.16;;;13.60;31.49
46638;BME280;32365;46.938;7.390;2023-02-11T10:44:19;97046.72;;;11.09;34.96
46638;BME280;32365;46.938;7.390;2023-02-11T10:46:48;97037.78;;;14.66;29.65
46638;BME280;32365;46.938;7.390;2023-02-11T10:52:21;97040.88;;;13.13;32.15
46638;BME280;32365;46.938;7.390;2023-02-11T10:54:55;97030.84;;;13.30;31.05
46638;BME280;32365;46.938;7.390;2023-02-11T10:57:25;97027.34;;;10.76;34.32
46638;BME280;32365;46.938;7.390;2023-02-11T10:59:56;97033.94;;;11.43;33.61
46638;BME280;32365;46.938;7.390;2023-02-11T11:02:27;97028.88;;;12.18;34.77
46638;BME280;32365;46.938;7.390;2023-02-11T11:04:57;97026.88;;;13.21;32.94
46638;BME280;32365;46.938;7.390;2023-02-11T11:07:28;97029.44;;;14.57;30.10
46638;BME280;32365;46.938;7.390;2023-02-11T11:09:57;97030.00;;;17.00;26.54
46638;BME280;32365;46.938;7.390;2023-02-11T11:12:29;97024.06;;;13.22;31.58
46638;BME280;32365;46.938;7.390;2023-02-11T11:14:57;97019.44;;;10.85;34.81
46638;BME280;32365;46.938;7.390;2023-02-11T11:17:25;97007.59;;;14.01;29.53
46638;BME280;32365;46.938;7.390;2023-02-11T11:19:55;97003.41;;;14.51;28.99
46638;BME280;32365;46.938;7.390;2023-02-11T11:22:22;96998.31;;;14.69;28.63
46638;BME280;32365;46.938;7.390;2023-02-11T11:24:50;96993.03;;;15.20;27.14
46638;BME280;32365;46.938;7.390;2023-02-11T11:27:22;97002.13;;;14.35;28.52
46638;BME280;32365;46.938;7.390;2023-02-11T11:29:51;96983.69;;;13.00;30.95
46638;BME280;32365;46.938;7.390;2023-02-11T11:32:21;96988.22;;;16.69;25.83
46638;BME280;32365;46.938;7.390;2023-02-11T11:34:51;96985.88;;;14.90;26.11
46638;BME280;32365;46.938;7.390;2023-02-11T11:37:23;96983.09;;;16.74;23.94
46638;BME280;32365;46.938;7.390;2023-02-11T11:39:56;96981.75;;;17.07;23.87
46638;BME280;32365;46.938;7.390;2023-02-11T11:42:26;96987.22;;;17.18;23.47
46638;BME280;32365;46.938;7.390;2023-02-11T11:44:57;96987.88;;;13.14;29.54
46638;BME280;32365;46.938;7.390;2023-02-11T11:47:30;96978.69;;;13.70;29.50
46638;BME280;32365;46.938;7.390;2023-02-11T11:50:18;96981.09;;;17.53;24.75
46638;BME280;32365;46.938;7.390;2023-02-11T11:52:49;96994.34;;;16.51;26.22
46638;BME280;32365;46.938;7.390;2023-02-11T11:55:24;96996.88;;;17.70;24.09
46638;BME280;32365;46.938;7.390;2023-02-11T11:57:52;96982.94;;;12.92;30.56
46638;BME280;32365;46.938;7.390;2023-02-11T12:00:22;96980.34;;;12.66;30.79
46638;BME280;32365;46.938;7.390;2023-02-11T12:03:25;96974.53;;;12.84;31.28
46638;BME280;32365;46.938;7.390;2023-02-11T12:06:10;96976.94;;;12.78;31.92
46638;BME280;32365;46.938;7.390;2023-02-11T12:08:44;96964.25;;;13.16;30.19
46638;BME280;32365;46.938;7.390;2023-02-11T12:11:23;96967.59;;;14.21;30.07
46638;BME280;32365;46.938;7.390;2023-02-11T12:14:01;96959.00;;;17.49;25.10
46638;BME280;32365;46.938;7.390;2023-02-11T12:16:36;96954.81;;;16.48;26.12
46638;BME280;32365;46.938;7.390;2023-02-11T12:19:41;96945.66;;;17.21;24.79
46638;BME280;32365;46.938;7.390;2023-02-11T12:22:11;96945.91;;;15.15;28.81
46638;BME280;32365;46.938;7.390;2023-02-11T12:25:05;96947.75;;;17.07;25.83
46638;BME280;32365;46.938;7.390;2023-02-11T12:27:43;96941.72;;;16.59;26.19
46638;BME280;32365;46.938;7.390;2023-02-11T12:30:37;96953.41;;;14.42;28.32
46638;BME280;32365;46.938;7.390;2023-02-11T12:33:14;96949.84;;;15.54;27.42
46638;BME280;32365;46.938;7.390;2023-02-11T12:35:51;96948.84;;;14.81;28.89
46638;BME280;32365;46.938;7.390;2023-02-11T12:38:36;96947.72;;;14.26;28.91
46638;BME280;32365;46.938;7.390;2023-02-11T12:41:18;96951.72;;;12.92;30.17
46638;BME280;32365;46.938;7.390;2023-02-11T12:44:22;96953.16;;;12.55;32.34
46638;BME280;32365;46.938;7.390;2023-02-11T12:46:56;96932.31;;;13.93;30.73
46638;BME280;32365;46.938;7.390;2023-02-11T12:49:47;96936.25;;;16.25;26.45
46638;BME280;32365;46.938;7.390;2023-02-11T12:52:24;96922.88;;;17.34;25.66
46638;BME280;32365;46.938;7.390;2023-02-11T12:54:57;96926.78;;;15.21;29.11
46638;BME280;32365;46.938;7.390;2023-02-11T12:57:27;96918.00;;;14.02;31.04
46638;BME280;32365;46.938;7.390;2023-02-11T12:59:59;96917.09;;;15.89;28.47
46638;BME280;32365;46.938;7.390;2023-02-11T13:02:33;96918.88;;;14.46;30.57
46638;BME280;32365;46.938;7.390;2023-02-11T13:05:05;96913.34;;;15.36;27.48
46638;BME280;32365;46.938;7.390;2023-02-11T13:07:40;96921.50;;;14.90;27.45
46638;BME280;32365;46.938;7.390;2023-02-11T13:10:26;96912.69;;;16.02;27.72
46638;BME280;32365;46.938;7.390;2023-02-11T13:12:56;96905.69;;;14.41;28.76
46638;BME280;32365;46.938;7.390;2023-02-11T13:15:46;96903.88;;;13.91;30.53
46638;BME280;32365;46.938;7.390;2023-02-11T13:18:23;96890.00;;;13.33;30.10
46638;BME280;32365;46.938;7.390;2023-02-11T13:20:54;96897.91;;;14.60;29.14
46638;BME280;32365;46.938;7.390;2023-02-11T13:23:30;96898.44;;;16.40;26.50
46638;BME280;32365;46.938;7.390;2023-02-11T13:26:04;96898.81;;;14.91;28.21
46638;BME280;32365;46.938;7.390;2023-02-11T13:28:42;96906.00;;;15.14;28.85
46638;BME280;32365;46.938;7.390;2023-02-11T13:31:11;96909.19;;;16.31;27.07
46638;BME280;32365;46.938;7.390;2023-02-11T13:33:41;96897.06;;;15.83;27.09
46638;BME280;32365;46.938;7.390;2023-02-11T13:36:22;96907.31;;;11.53;33.46
46638;BME280;32365;46.938;7.390;2023-02-11T13:39:01;96901.66;;;14.20;30.65
46638;BME280;32365;46.938;7.390;2023-02-11T13:41:30;96904.34;;;14.57;28.22
46638;BME280;32365;46.938;7.390;2023-02-11T13:44:00;96896.00;;;12.68;30.93
46638;BME280;32365;46.938;7.390;2023-02-11T13:46:46;96904.19;;;11.16;33.10
46638;BME280;32365;46.938;7.390;2023-02-11T13:49:19;96899.28;;;10.51;36.21
46638;BME280;32365;46.938;7.390;2023-02-11T13:51:47;96896.63;;;10.72;35.34
46638;BME280;32365;46.938;7.390;2023-02-11T13:54:24;96884.81;;;12.74;32.41
46638;BME280;32365;46.938;7.390;2023-02-11T13:59:57;96892.81;;;10.68;34.82
46638;BME280;32365;46.938;7.390;2023-02-11T14:02:31;96886.72;;;11.31;35.34
46638;BME280;32365;46.938;7.390;2023-02-11T14:05:27;96885.91;;;10.82;36.93
46638;BME280;32365;46.938;7.390;2023-02-11T14:08:18;96875.00;;;10.93;36.13
46638;BME280;32365;46.938;7.390;2023-02-11T14:11:06;96871.16;;;10.19;36.84
46638;BME280;32365;46.938;7.390;2023-02-11T14:14:13;96864.63;;;10.30;37.10
46638;BME280;32365;46.938;7.390;2023-02-11T14:19:48;96873.72;;;9.69;39.00
46638;BME280;32365;46.938;7.390;2023-02-11T14:22:17;96864.03;;;9.34;38.29
46638;BME280;32365;46.938;7.390;2023-02-11T14:24:55;96868.63;;;8.42;41.65
46638;BME280;32365;46.938;7.390;2023-02-11T14:27:32;96858.88;;;8.83;42.02
46638;BME280;32365;46.938;7.390;2023-02-11T14:32:59;96857.47;;;9.53;38.84
46638;BME280;32365;46.938;7.390;2023-02-11T16:10:52;96860.66;;;6.33;50.06
46638;BME280;32365;46.938;7.390;2023-02-11T16:13:22;96857.66;;;6.13;50.91
46638;BME280;32365;46.938;7.390;2023-02-11T16:15:51;96866.34;;;6.12;51.27
46638;BME280;32365;46.938;7.390;2023-02-11T16:18:32;96864.53;;;5.88;52.15
46638;BME280;32365;46.938;7.390;2023-02-11T16:20:59;96864.06;;;5.76;53.38
46638;BME280;32365;46.938;7.390;2023-02-11T16:23:28;96868.56;;;5.74;53.53
46638;BME280;32365;46.938;7.390;2023-02-11T16:26:01;96868.38;;;5.50;54.27
46638;BME280;32365;46.938;7.390;2023-02-11T16:28:30;96874.81;;;5.63;53.74
46638;BME280;32365;46.938;7.390;2023-02-11T16:30:57;96874.59;;;5.31;54.16
46638;BME280;32365;46.938;7.390;2023-02-11T16:33:24;96864.59;;;5.12;54.81
46638;BME280;32365;46.938;7.390;2023-02-11T16:35:50;96869.19;;;5.00;55.16
46638;BME280;32365;46.938;7.390;2023-02-11T16:38:17;96871.41;;;4.86;55.68
46638;BME280;32365;46.938;7.390;2023-02-11T16:40:43;96869.56;;;4.70;56.56
46638;BME280;32365;46.938;7.390;2023-02-11T16:43:17;96877.03;;;4.55;57.63
46638;BME280;32365;46.938;7.390;2023-02-11T16:45:43;96878.44;;;4.50;58.63
46638;BME280;32365;46.938;7.390;2023-02-11T16:48:14;96883.38;;;4.43;58.97
46638;BME280;32365;46.938;7.390;2023-02-11T16:50:43;96868.91;;;4.34;59.66
46638;BME280;32365;46.938;7.390;2023-02-11T16:53:10;96876.19;;;4.20;60.62
46638;BME280;32365;46.938;7.390;2023-02-11T16:55:38;96883.34;;;3.90;61.06
46638;BME280;32365;46.938;7.390;2023-02-11T16:58:04;96883.91;;;3.84;61.73
46638;BME280;32365;46.938;7.390;2023-02-11T17:00:32;96886.94;;;3.79;62.17
46638;BME280;32365;46.938;7.390;2023-02-11T17:02:59;96896.38;;;3.61;62.68
46638;BME280;32365;46.938;7.390;2023-02-11T17:05:25;96895.63;;;3.50;63.62
46638;BME280;32365;46.938;7.390;2023-02-11T17:07:52;96896.22;;;3.44;64.12
46638;BME280;32365;46.938;7.390;2023-02-11T17:10:20;96901.25;;;3.36;64.87
46638;BME280;32365;46.938;7.390;2023-02-11T17:12:47;96897.41;;;3.22;64.70
46638;BME280;32365;46.938;7.390;2023-02-11T17:15:14;96908.66;;;3.11;66.71
46638;BME280;32365;46.938;7.390;2023-02-11T17:17:42;96896.56;;;3.03;66.55
46638;BME280;32365;46.938;7.390;2023-02-11T17:20:11;96904.38;;;3.02;65.53
46638;BME280;32365;46.938;7.390;2023-02-11T17:22:38;96905.41;;;2.81;65.86
46638;BME280;32365;46.938;7.390;2023-02-11T17:25:05;96902.63;;;2.74;67.36
46638;BME280;32365;46.938;7.390;2023-02-11T17:27:32;96902.38;;;2.68;67.52
46638;BME280;32365;46.938;7.390;2023-02-11T17:29:59;96905.63;;;2.60;68.09
46638;BME280;32365;46.938;7.390;2023-02-11T17:32:25;96904.00;;;2.59;68.54
46638;BME280;32365;46.938;7.390;2023-02-11T17:34:53;96908.22;;;2.50;69.46
46638;BME280;32365;46.938;7.390;2023-02-11T17:37:20;96905.94;;;2.47;69.13
46638;BME280;32365;46.938;7.390;2023-02-11T17:39:47;96908.34;;;2.49;69.60
46638;BME280;32365;46.938;7.390;2023-02-11T17:42:14;96914.28;;;2.39;69.81
46638;BME280;32365;46.938;7.390;2023-02-11T17:44:42;96912.94;;;2.35;70.88
46638;BME280;32365;46.938;7.390;2023-02-11T17:47:08;96915.63;;;2.34;70.26
46638;BME280;32365;46.938;7.390;2023-02-11T17:49:35;96915.63;;;2.43;69.54
46638;BME280;32365;46.938;7.390;2023-02-11T17:52:03;96916.31;;;2.45;69.52
46638;BME280;32365;46.938;7.390;2023-02-11T17:54:29;96923.72;;;2.39;69.32
46638;BME280;32365;46.938;7.390;2023-02-11T17:56:56;96931.38;;;2.19;70.20
46638;BME280;32365;46.938;7.390;2023-02-11T17:59:22;96923.75;;;2.09;71.18
46638;BME280;32365;46.938;7.390;2023-02-11T18:01:50;96926.19;;;1.91;71.12
46638;BME280;32365;46.938;7.390;2023-02-11T18:04:17;96922.66;;;1.53;73.29
46638;BME280;32365;46.938;7.390;2023-02-11T18:06:44;96924.81;;;1.58;73.81
46638;BME280;32365;46.938;7.390;2023-02-11T18:09:12;96930.84;;;1.57;73.69
46638;BME280;32365;46.938;7.390;2023-02-11T18:11:39;96929.78;;;1.59;73.87
46638;BME280;32365;46.938;7.390;2023-02-11T18:14:06;96923.44;;;1.53;73.48
46638;BME280;32365;46.938;7.390;2023-02-11T18:16:34;96927.75;;;1.53;74.03
46638;BME280;32365;46.938;7.390;2023-02-11T18:19:03;96925.97;;;1.34;74.61
46638;BME280;32365;46.938;7.390;2023-02-11T18:21:31;96925.84;;;1.26;75.10
46638;BME280;32365;46.938;7.390;2023-02-11T18:23:58;96915.88;;;1.22;75.52
46638;BME280;32365;46.938;7.390;2023-02-11T18:26:26;96923.94;;;1.28;75.49
46638;BME280;32365;46.938;7.390;2023-02-11T18:28:53;96929.53;;;1.12;75.78
46638;BME280;32365;46.938;7.390;2023-02-11T18:31:22;96926.00;;;1.03;76.58
46638;BME280;32365;46.938;7.390;2023-02-11T18:33:49;96927.59;;;0.94;77.03
46638;BME280;32365;46.938;7.390;2023-02-11T18:36:18;96942.75;;;0.96;76.98
46638;BME280;32365;46.938;7.390;2023-02-11T18:38:45;96939.50;;;0.84;77.17
46638;BME280;32365;46.938;7.390;2023-02-11T18:41:12;96943.72;;;0.73;77.57
46638;BME280;32365;46.938;7.390;2023-02-11T18:43:41;96943.94;;;0.91;77.23
46638;BME280;32365;46.938;7.390;2023-02-11T18:46:09;96951.25;;;1.06;77.09
46638;BME280;32365;46.938;7.390;2023-02-11T18:48:37;96948.13;;;0.92;76.98
46638;BME280;32365;46.938;7.390;2023-02-11T18:51:07;96949.13;;;0.80;77.63
46638;BME280;32365;46.938;7.390;2023-02-11T18:53:34;96948.25;;;0.91;77.50
46638;BME280;32365;46.938;7.390;2023-02-11T18:56:05;96945.56;;;0.92;76.93
46638;BME280;32365;46.938;7.390;2023-02-11T18:58:32;96944.19;;;0.79;77.61
46638;BME280;32365;46.938;7.390;2023-02-11T19:00:59;96953.69;;;0.55;77.16
46638;BME280;32365;46.938;7.390;2023-02-11T19:03:26;96951.28;;;0.33;79.15
46638;BME280;32365;46.938;7.390;2023-02-11T19:05:52;96955.38;;;0.45;79.38
46638;BME280;32365;46.938;7.390;2023-02-11T19:08:19;96962.91;;;0.25;79.80
46638;BME280;32365;46.938;7.390;2023-02-11T19:10:46;96963.66;;;-0.17;80.07
46638;BME280;32365;46.938;7.390;2023-02-11T19:13:13;96965.00;;;-0.01;81.26
46638;BME280;32365;46.938;7.390;2023-02-11T19:15:40;96960.91;;;0.08;82.09
46638;BME280;32365;46.938;7.390;2023-02-11T19:18:09;96957.78;;;0.04;81.23
46638;BME280;32365;46.938;7.390;2023-02-11T19:20:38;96965.63;;;0.12;81.10
46638;BME280;32365;46.938;7.390;2023-02-11T19:23:04;96970.06;;;0.10;81.41
46638;BME280;32365;46.938;7.390;2023-02-11T19:25:31;96972.28;;;0.04;82.09
46638;BME280;32365;46.938;7.390;2023-02-11T19:27:58;96965.06;;;0.09;81.98
46638;BME280;32365;46.938;7.390;2023-02-11T19:30:24;96964.25;;;0.08;81.63
46638;BME280;32365;46.938;7.390;2023-02-11T19:32:51;96970.66;;;0.03;81.54
46638;BME280;32365;46.938;7.390;2023-02-11T19:35:22;96967.47;;;-0.11;82.02
46638;BME280;32365;46.938;7.390;2023-02-11T19:37:49;96972.97;;;-0.06;82.45
46638;BME280;32365;46.938;7.390;2023-02-11T19:40:16;96967.47;;;-0.11;82.10
46638;BME280;32365;46.938;7.390;2023-02-11T19:42:43;96975.53;;;-0.06;82.76
46638;BME280;32365;46.938;7.390;2023-02-11T19:45:10;96966.44;;;-0.20;82.07
46638;BME280;32365;46.938;7.390;2023-02-11T19:47:36;96973.94;;;-0.07;82.42
46638;BME280;32365;46.938;7.390;2023-02-11T19:50:04;96975.31;;;-0.14;82.20
46638;BME280;32365;46.938;7.390;2023-02-11T19:52:32;96974.53;;;-0.14;82.60
46638;BME280;32365;46.938;7.390;2023-02-11T19:54:59;96976.16;;;-0.13;83.08
46638;BME280;32365;46.938;7.390;2023-02-11T19:57:25;96972.09;;;-0.16;82.48
46638;BME280;32365;46.938;7.390;2023-02-11T19:59:52;96966.84;;;-0.36;82.35
46638;BME280;32365;46.938;7.390;2023-02-11T20:02:19;96972.16;;;-0.39;83.82
46638;BME280;32365;46.938;7.390;2023-02-11T20:04:46;96982.09;;;-0.36;84.33
46638;BME280;32365;46.938;7.390;2023-02-11T20:07:12;96979.91;;;-0.40;84.29
46638;BME280;32365;46.938;7.390;2023-02-11T20:09:40;96981.56;;;-0.51;84.68
46638;BME280;32365;46.938;7.390;2023-02-11T20:12:07;96977.03;;;-0.47;85.26
46638;BME280;32365;46.938;7.390;2023-02-11T20:14:36;96986.31;;;-0.57;84.59
46638;BME280;32365;46.938;7.390;2023-02-11T20:17:03;96991.97;;;-0.65;84.90
46638;BME280;32365;46.938;7.390;2023-02-11T20:19:29;96993.81;;;-0.67;85.56
46638;BME280;32365;46.938;7.390;2023-02-11T20:21:56;96988.72;;;-0.67;85.20
46638;BME280;32365;46.938;7.390;2023-02-11T20:24:23;96988.88;;;-0.91;84.91
46638;BME280;32365;46.938;7.390;2023-02-11T20:26:52;96992.22;;;-0.91;86.20
46638;BME280;32365;46.938;7.390;2023-02-11T20:29:20;96990.38;;;-0.78;85.02
46638;BME280;32365;46.938;7.390;2023-02-11T20:31:48;96984.09;;;-0.96;85.31
46638;BME280;32365;46.938;7.390;2023-02-11T20:34:15;96978.00;;;-0.94;85.82
46638;BME280;32365;46.938;7.390;2023-02-11T20:36:42;96982.53;;;-0.97;86.51
46638;BME280;32365;46.938;7.390;2023-02-11T20:39:16;96987.69;;;-0.99;85.92
46638;BME280;32365;46.938;7.390;2023-02-11T20:41:43;96996.59;;;-1.04;86.64
46638;BME280;32365;46.938;7.390;2023-02-11T20:44:12;96984.91;;;-1.18;86.84
46638;BME280;32365;46.938;7.390;2023-02-11T20:46:40;96991.06;;;-1.21;87.59
46638;BME280;32365;46.938;7.390;2023-02-11T20:49:09;96986.56;;;-1.06;86.89
46638;BME280;32365;46.938;7.390;2023-02-11T20:51:36;96990.72;;;-1.16;87.10
46638;BME280;32365;46.938;7.390;2023-02-11T20:54:04;97000.50;;;-1.23;87.36
46638;BME280;32365;46.938;7.390;2023-02-11T20:56:33;96991.63;;;-1.29;87.23
46638;BME280;32365;46.938;7.390;2023-02-11T20:59:02;96994.38;;;-1.32;87.25
46638;BME280;32365;46.938;7.390;2023-02-11T21:01:33;96997.72;;;-1.31;87.88
46638;BME280;32365;46.938;7.390;2023-02-11T21:04:01;96988.38;;;-1.19;87.25
46638;BME280;32365;46.938;7.390;2023-02-11T21:06:31;96989.19;;;-1.19;87.49
46638;BME280;32365;46.938;7.390;2023-02-11T21:08:58;96993.22;;;-1.28;87.30
46638;BME280;32365;46.938;7.390;2023-02-11T21:11:25;96982.59;;;-1.21;87.73
46638;BME280;32365;46.938;7.390;2023-02-11T21:13:52;96984.22;;;-1.32;87.41
46638;BME280;32365;46.938;7.390;2023-02-11T21:16:19;96983.66;;;-1.24;87.27
46638;BME280;32365;46.938;7.390;2023-02-11T21:18:47;96981.56;;;-1.19;87.00
